createdAt,value
2023-03-04T00:01:31.811Z,1.17
2023-03-04T00:03:58.630Z,1.20
2023-03-04T00:06:25.441Z,0.50
2023-03-04T00:08:52.217Z,0.50
2023-03-04T00:11:19.035Z,0.50
2023-03-04T00:13:45.841Z,0.70
2023-03-04T00:16:12.744Z,0.63
2023-03-04T00:18:39.538Z,0.52
2023-03-04T00:21:06.451Z,0.50
2023-03-04T00:23:33.313Z,0.60
2023-03-04T00:26:00.111Z,0.65
2023-03-04T00:28:26.956Z,0.50
2023-03-04T00:30:54.098Z,0.75
2023-03-04T00:33:20.892Z,0.55
2023-03-04T00:35:47.710Z,0.52
2023-03-04T00:38:14.553Z,0.50
2023-03-04T00:40:42.630Z,0.57
2023-03-04T00:43:09.408Z,0.88
2023-03-04T00:45:36.297Z,1.90
2023-03-04T00:48:03.228Z,0.40
2023-03-04T00:50:30.007Z,0.90
2023-03-04T00:52:56.787Z,0.85
2023-03-04T00:55:24.283Z,0.75
2023-03-04T00:57:51.122Z,0.68
2023-03-04T01:00:18.328Z,0.65
2023-03-04T01:02:45.209Z,0.50
2023-03-04T01:05:12.241Z,0.50
2023-03-04T01:07:39.070Z,0.63
2023-03-04T01:10:06.626Z,0.70
2023-03-04T01:12:33.422Z,0.88
2023-03-04T01:15:00.343Z,0.70
2023-03-04T01:17:27.185Z,0.60
2023-03-04T01:19:53.995Z,0.60
2023-03-04T01:22:20.997Z,0.65
2023-03-04T01:24:48.144Z,0.82
2023-03-04T01:27:14.999Z,0.47
2023-03-04T01:29:41.794Z,0.45
2023-03-04T01:32:08.671Z,0.50
2023-03-04T01:34:36.233Z,0.63
2023-03-04T01:37:04.566Z,2.90
2023-03-04T01:39:31.415Z,0.63
2023-03-04T01:41:58.243Z,0.40
2023-03-04T01:44:25.093Z,1.23
2023-03-04T01:46:57.064Z,0.55
2023-03-04T01:49:24.674Z,0.63
2023-03-04T01:51:53.621Z,0.47
2023-03-04T01:54:20.982Z,0.50
2023-03-04T01:56:48.845Z,0.40
2023-03-04T01:59:25.052Z,0.63
2023-03-04T02:01:56.684Z,0.40
2023-03-04T02:04:29.895Z,0.40
2023-03-04T02:06:56.777Z,0.82
2023-03-04T02:09:23.658Z,0.45
2023-03-04T02:11:50.657Z,0.43
2023-03-04T02:14:18.595Z,0.40
2023-03-04T02:16:45.478Z,0.40
2023-03-04T02:19:36.886Z,0.47
2023-03-04T02:22:05.746Z,0.55
2023-03-04T02:24:43.560Z,0.30
2023-03-04T02:27:10.624Z,0.50
2023-03-04T02:29:38.526Z,0.50
2023-03-04T02:32:05.672Z,0.30
2023-03-04T02:34:36.161Z,1.08
2023-03-04T02:37:03.378Z,0.50
2023-03-04T02:39:38.369Z,0.38
2023-03-04T02:44:47.593Z,0.43
2023-03-04T02:47:17.891Z,0.80
2023-03-04T02:49:44.891Z,0.60
2023-03-04T02:52:19.738Z,0.35
2023-03-04T02:54:46.742Z,0.50
2023-03-04T02:57:14.207Z,0.50
2023-03-04T02:59:43.950Z,0.75
2023-03-04T03:02:16.510Z,0.53
2023-03-04T03:04:43.331Z,0.45
2023-03-04T03:07:13.444Z,0.68
2023-03-04T03:09:40.298Z,0.65
2023-03-04T03:12:07.366Z,0.32
2023-03-04T03:14:34.138Z,0.40
2023-03-04T03:17:02.787Z,0.50
2023-03-04T03:19:29.564Z,0.30
2023-03-04T03:21:56.436Z,0.43
2023-03-04T03:24:23.223Z,0.40
2023-03-04T03:26:50.008Z,0.30
2023-03-04T03:29:16.827Z,0.63
2023-03-04T03:31:43.741Z,0.80
2023-03-04T03:34:10.562Z,0.50
2023-03-04T03:36:37.371Z,0.30
2023-03-04T03:39:04.347Z,0.65
2023-03-04T03:41:31.167Z,0.38
2023-03-04T03:43:58.069Z,0.38
2023-03-04T03:46:24.937Z,1.45
2023-03-04T03:48:51.734Z,0.43
2023-03-04T03:51:18.522Z,0.40
2023-03-04T03:53:45.283Z,0.20
2023-03-04T03:56:12.079Z,0.80
2023-03-04T03:58:38.861Z,0.65
2023-03-04T04:01:05.670Z,0.40
2023-03-04T04:03:32.450Z,0.30
2023-03-04T04:05:59.287Z,0.57
2023-03-04T04:08:26.184Z,0.80
2023-03-04T04:10:53.082Z,0.55
2023-03-04T04:13:19.848Z,0.30
2023-03-04T04:15:46.622Z,0.50
2023-03-04T04:18:13.539Z,0.50
2023-03-04T04:20:40.788Z,0.57
2023-03-04T04:23:07.569Z,0.40
2023-03-04T04:25:34.376Z,0.40
2023-03-04T04:28:01.248Z,0.38
2023-03-04T04:30:28.208Z,0.38
2023-03-04T04:32:55.109Z,1.50
2023-03-04T04:35:21.947Z,0.40
2023-03-04T04:37:48.742Z,0.32
2023-03-04T04:40:16.767Z,0.40
2023-03-04T04:42:43.604Z,0.30
2023-03-04T04:45:10.884Z,0.45
2023-03-04T04:47:37.702Z,0.40
2023-03-04T04:50:04.862Z,0.40
2023-03-04T04:52:31.630Z,0.40
2023-03-04T04:54:58.501Z,0.30
2023-03-04T04:57:25.290Z,0.55
2023-03-04T04:59:52.186Z,0.50
2023-03-04T05:02:19.015Z,0.30
2023-03-04T05:04:45.860Z,0.40
2023-03-04T05:07:12.627Z,0.73
2023-03-04T05:09:39.424Z,0.90
2023-03-04T05:12:06.243Z,0.70
2023-03-04T05:14:33.109Z,0.47
2023-03-04T05:16:59.996Z,0.35
2023-03-04T05:19:26.832Z,0.55
2023-03-04T05:21:53.654Z,0.88
2023-03-04T05:24:20.529Z,0.90
2023-03-04T05:26:47.576Z,1.17
2023-03-04T05:29:14.439Z,0.95
2023-03-04T05:31:41.206Z,1.00
2023-03-04T05:34:08.033Z,1.00
2023-03-04T05:36:34.866Z,0.80
2023-03-04T05:39:01.711Z,0.80
2023-03-04T05:41:28.560Z,1.02
2023-03-04T05:43:56.495Z,0.75
2023-03-04T05:46:25.585Z,0.63
2023-03-04T05:48:53.456Z,1.30
2023-03-04T05:51:20.456Z,0.57
2023-03-04T05:53:47.402Z,0.77
2023-03-04T05:56:16.228Z,0.77
2023-03-04T05:58:43.582Z,0.60
2023-03-04T06:01:10.456Z,0.80
2023-03-04T06:03:37.740Z,0.90
2023-03-04T06:06:04.864Z,1.08
2023-03-04T06:08:31.774Z,1.63
2023-03-04T06:10:59.251Z,0.98
2023-03-04T06:13:26.069Z,0.95
2023-03-04T06:15:56.656Z,1.10
2023-03-04T06:18:23.981Z,1.00
2023-03-04T06:20:50.799Z,1.00
2023-03-04T06:23:17.597Z,1.63
2023-03-04T06:25:44.475Z,1.55
2023-03-04T06:28:11.495Z,3.22
2023-03-04T06:30:38.347Z,1.70
2023-03-04T06:33:05.128Z,1.40
2023-03-04T06:35:32.063Z,1.38
2023-03-04T06:37:58.842Z,1.08
2023-03-04T06:40:25.680Z,1.13
2023-03-04T06:42:52.490Z,1.02
2023-03-04T06:45:19.410Z,1.38
2023-03-04T06:47:46.248Z,0.80
2023-03-04T06:50:13.321Z,0.95
2023-03-04T06:52:40.567Z,1.30
2023-03-04T06:55:08.178Z,0.85
2023-03-04T06:57:35.115Z,1.05
2023-03-04T07:00:03.411Z,0.93
2023-03-04T07:02:30.513Z,1.40
2023-03-04T07:04:57.398Z,0.52
2023-03-04T07:07:26.194Z,0.68
2023-03-04T07:09:52.982Z,0.45
2023-03-04T07:12:19.787Z,0.40
2023-03-04T07:14:46.577Z,0.50
2023-03-04T07:17:13.456Z,0.40
2023-03-04T07:19:41.860Z,0.40
2023-03-04T07:22:08.713Z,0.70
2023-03-04T07:24:35.508Z,0.40
2023-03-04T07:27:02.316Z,0.55
2023-03-04T07:29:29.192Z,0.55
2023-03-04T07:31:56.085Z,0.50
2023-03-04T07:34:22.956Z,0.50
2023-03-04T07:36:49.804Z,0.40
2023-03-04T07:39:16.610Z,0.47
2023-03-04T07:41:43.487Z,0.80
2023-03-04T07:44:13.174Z,1.10
2023-03-04T07:46:40.355Z,0.70
2023-03-04T07:49:07.281Z,1.90
2023-03-04T07:51:35.028Z,1.60
2023-03-04T07:54:01.955Z,1.10
2023-03-04T07:56:30.982Z,1.98
2023-03-04T07:58:57.937Z,1.00
2023-03-04T08:01:32.478Z,0.90
2023-03-04T08:03:59.480Z,1.38
2023-03-04T08:06:27.007Z,1.20
2023-03-04T08:08:58.753Z,1.50
2023-03-04T08:11:26.015Z,1.30
2023-03-04T08:13:54.281Z,1.10
2023-03-04T08:16:22.353Z,1.30
2023-03-04T08:18:50.949Z,1.13
2023-03-04T08:21:20.937Z,1.13
2023-03-04T08:23:47.967Z,1.30
2023-03-04T08:26:17.500Z,1.25
2023-03-04T08:28:45.824Z,1.35
2023-03-04T08:31:14.025Z,1.25
2023-03-04T08:33:40.964Z,1.17
2023-03-04T08:36:08.228Z,1.45
2023-03-04T08:38:35.213Z,1.67
2023-03-04T08:41:03.971Z,1.73
2023-03-04T08:43:31.075Z,1.13
2023-03-04T08:45:58.016Z,1.08
2023-03-04T08:48:25.095Z,1.75
2023-03-04T08:50:51.989Z,1.23
2023-03-04T08:53:19.223Z,0.98
2023-03-04T08:55:46.196Z,1.20
2023-03-04T08:58:13.502Z,1.05
2023-03-04T09:00:43.058Z,0.70
2023-03-04T09:03:11.846Z,1.00
2023-03-04T09:05:39.164Z,1.30
2023-03-04T09:08:06.416Z,0.90
2023-03-04T09:10:33.214Z,0.68
2023-03-04T09:13:01.110Z,0.70
2023-03-04T09:15:28.000Z,0.32
2023-03-04T09:17:54.851Z,0.30
2023-03-04T09:20:23.145Z,0.60
2023-03-04T09:22:49.953Z,0.80
2023-03-04T09:25:16.747Z,0.40
2023-03-04T09:27:43.654Z,0.38
2023-03-04T09:30:10.988Z,0.85
2023-03-04T09:32:37.855Z,0.50
2023-03-04T09:35:05.135Z,0.40
2023-03-04T09:37:31.961Z,0.50
2023-03-04T09:39:58.792Z,0.70
2023-03-04T09:42:28.636Z,1.15
2023-03-04T09:44:55.445Z,0.98
2023-03-04T09:47:22.503Z,0.80
2023-03-04T09:49:57.494Z,1.33
2023-03-04T09:52:37.954Z,0.93
2023-03-04T09:55:18.038Z,0.90
2023-03-04T09:57:50.762Z,0.90
2023-03-04T10:00:25.996Z,0.83
2023-03-04T10:03:43.093Z,0.77
2023-03-04T10:06:11.871Z,1.20
2023-03-04T10:08:40.485Z,1.65
2023-03-04T10:11:28.977Z,2.17
2023-03-04T10:13:58.518Z,1.70
2023-03-04T10:16:29.566Z,2.38
2023-03-04T10:18:58.666Z,2.25
2023-03-04T10:21:38.530Z,2.55
2023-03-04T10:24:17.863Z,2.45
2023-03-04T10:26:46.054Z,3.15
2023-03-04T10:29:17.181Z,2.53
2023-03-04T10:31:44.515Z,3.15
2023-03-04T10:34:12.597Z,3.00
2023-03-04T10:36:42.549Z,2.42
2023-03-04T10:39:10.289Z,2.83
2023-03-04T10:41:37.208Z,3.45
2023-03-04T10:44:04.097Z,2.63
2023-03-04T10:46:31.723Z,2.72
2023-03-04T10:48:58.663Z,2.65
2023-03-04T10:51:27.874Z,2.40
2023-03-04T10:54:16.532Z,2.10
2023-03-04T10:56:45.779Z,2.22
2023-03-04T10:59:43.854Z,1.50
2023-03-04T11:02:33.312Z,1.27
2023-03-04T11:05:15.548Z,1.55
2023-03-04T11:07:54.979Z,1.42
2023-03-04T11:10:29.178Z,1.60
2023-03-04T11:12:59.049Z,2.08
2023-03-04T11:15:29.450Z,2.42
2023-03-04T11:18:04.513Z,2.50
2023-03-04T11:20:36.194Z,2.25
2023-03-04T11:23:06.006Z,2.00
2023-03-04T11:25:38.513Z,2.10
2023-03-04T11:28:14.568Z,2.58
2023-03-04T11:31:04.464Z,1.75
2023-03-04T11:33:47.609Z,2.42
2023-03-04T11:36:47.730Z,1.45
2023-03-04T11:39:20.681Z,1.70
2023-03-04T11:41:55.027Z,2.20
2023-03-04T11:44:21.965Z,1.80
2023-03-04T11:46:58.753Z,1.60
2023-03-04T11:49:56.722Z,1.38
2023-03-04T11:53:00.513Z,1.20
2023-03-04T11:55:56.268Z,1.40
2023-03-04T11:58:41.184Z,1.95
2023-03-04T12:01:15.027Z,1.73
2023-03-04T12:03:51.022Z,1.83
2023-03-04T12:06:36.786Z,1.88
2023-03-04T12:09:16.304Z,1.23
2023-03-04T12:11:55.110Z,1.55
2023-03-04T12:14:46.495Z,1.70
2023-03-04T12:17:29.532Z,2.00
2023-03-04T12:20:27.129Z,2.67
2023-03-04T12:23:19.453Z,2.03
2023-03-04T12:25:58.310Z,2.30
2023-03-04T12:28:38.310Z,2.20
2023-03-04T12:31:11.139Z,2.30
2023-03-04T12:33:53.113Z,1.92
2023-03-04T12:36:28.327Z,2.00
2023-03-04T12:39:34.441Z,2.10
2023-03-04T12:42:20.792Z,1.40
2023-03-04T12:45:04.534Z,1.58
2023-03-04T12:47:49.599Z,1.50
2023-03-04T12:50:25.157Z,1.70
2023-03-04T12:53:02.899Z,1.40
2023-03-04T12:55:36.535Z,1.25
2023-03-04T13:00:59.512Z,1.73
2023-03-04T13:03:42.617Z,2.03
2023-03-04T13:06:34.544Z,1.13
2023-03-04T13:09:19.921Z,1.10
2023-03-04T13:11:49.789Z,2.10
2023-03-04T13:14:18.265Z,1.90
2023-03-04T13:16:45.822Z,2.65
2023-03-04T13:19:51.164Z,2.40
2023-03-04T13:22:39.667Z,2.10
2023-03-04T13:25:32.367Z,2.35
2023-03-04T13:28:11.348Z,1.75
2023-03-04T13:30:39.870Z,1.80
2023-03-04T13:33:09.907Z,2.40
2023-03-04T13:36:00.193Z,2.33
2023-03-04T13:38:27.086Z,2.00
2023-03-04T13:41:15.963Z,1.95
2023-03-04T13:43:49.093Z,1.50
2023-03-04T13:46:19.195Z,1.42
2023-03-04T13:48:52.011Z,1.30
2023-03-04T13:51:28.888Z,1.13
2023-03-04T13:54:00.423Z,1.83
2023-03-04T13:56:43.371Z,1.90
2023-03-04T13:59:15.382Z,1.70
2023-03-04T14:02:11.662Z,2.15
2023-03-04T14:04:39.725Z,2.60
2023-03-04T14:07:30.110Z,2.80
2023-03-04T14:10:17.182Z,2.60
2023-03-04T14:12:52.042Z,2.58
2023-03-04T14:15:25.868Z,2.65
2023-03-04T14:17:54.020Z,3.28
2023-03-04T14:20:27.891Z,3.10
2023-03-04T14:22:55.187Z,3.35
2023-03-04T14:25:30.488Z,3.60
2023-03-04T14:28:18.954Z,3.17
2023-03-04T14:30:56.256Z,3.08
2023-03-04T14:33:30.488Z,1.80
2023-03-04T14:36:01.583Z,1.30
2023-03-04T14:38:38.183Z,1.17
2023-03-04T14:41:06.404Z,0.85
2023-03-04T14:43:36.772Z,0.85
2023-03-04T14:46:03.686Z,1.88
2023-03-04T14:48:33.753Z,1.35
2023-03-04T14:51:01.812Z,1.15
2023-03-04T14:53:32.524Z,1.63
2023-03-04T14:56:06.597Z,2.00
2023-03-04T14:58:34.645Z,2.20
2023-03-04T15:01:20.734Z,2.50
2023-03-04T15:03:57.460Z,2.00
2023-03-04T15:06:29.282Z,1.77
2023-03-04T15:09:00.021Z,2.65
2023-03-04T15:11:55.969Z,2.80
2023-03-04T15:14:41.951Z,2.85
2023-03-04T15:17:37.559Z,2.50
2023-03-04T15:20:07.518Z,3.83
2023-03-04T15:22:34.976Z,2.95
2023-03-04T15:25:03.682Z,3.70
2023-03-04T15:27:34.012Z,3.90
2023-03-04T15:30:02.034Z,3.28
2023-03-04T15:32:29.361Z,3.33
2023-03-04T15:34:56.289Z,2.72
2023-03-04T15:37:27.742Z,2.78
2023-03-04T15:39:55.557Z,3.33
2023-03-04T15:42:23.368Z,2.88
2023-03-04T15:44:50.198Z,2.70
2023-03-04T15:47:16.963Z,2.30
2023-03-04T15:49:44.561Z,2.10
2023-03-04T15:52:17.079Z,2.53
2023-03-04T15:54:44.282Z,2.55
2023-03-04T15:57:26.832Z,2.67
2023-03-04T15:59:53.635Z,3.08
2023-03-04T16:02:24.921Z,2.95
2023-03-04T16:04:51.744Z,2.90
2023-03-04T16:07:19.834Z,3.33
2023-03-04T16:09:47.177Z,3.95
2023-03-04T16:12:14.032Z,3.92
2023-03-04T16:14:41.898Z,3.60
2023-03-04T16:17:09.637Z,3.67
2023-03-04T16:19:36.524Z,4.05
2023-03-04T16:22:03.330Z,3.00
2023-03-04T16:24:31.646Z,3.03
2023-03-04T16:26:58.455Z,2.53
2023-03-04T16:29:25.429Z,2.40
2023-03-04T16:31:53.962Z,2.13
2023-03-04T16:34:20.771Z,2.83
2023-03-04T16:36:47.672Z,2.80
2023-03-04T16:39:20.126Z,2.80
2023-03-04T16:41:46.933Z,3.33
2023-03-04T16:44:14.757Z,4.65
2023-03-04T16:46:41.756Z,3.17
2023-03-04T16:49:08.922Z,4.10
2023-03-04T16:51:40.035Z,3.38
2023-03-04T16:54:06.895Z,3.47
2023-03-04T16:56:35.030Z,3.90
2023-03-04T16:59:02.052Z,3.45
2023-03-04T17:01:29.120Z,3.88
2023-03-04T17:03:56.157Z,4.45
2023-03-04T17:06:23.181Z,4.38
2023-03-04T17:08:50.043Z,3.33
2023-03-04T17:11:18.658Z,3.58
2023-03-04T17:13:45.557Z,3.47
2023-03-04T17:16:12.700Z,5.05
2023-03-04T17:18:39.636Z,3.70
2023-03-04T17:21:08.511Z,3.97
2023-03-04T17:23:35.302Z,4.10
2023-03-04T17:26:02.236Z,3.92
2023-03-04T17:28:30.241Z,4.88
2023-03-04T17:30:57.100Z,5.45
2023-03-04T17:33:23.884Z,7.50
2023-03-04T17:35:50.734Z,7.45
2023-03-04T17:38:17.612Z,4.53
2023-03-04T17:40:44.523Z,8.02
2023-03-04T17:43:11.692Z,8.38
2023-03-04T17:45:43.135Z,7.63
2023-03-04T17:48:15.268Z,8.27
2023-03-04T17:50:51.892Z,5.45
2023-03-04T17:53:18.973Z,4.57
2023-03-04T17:56:02.124Z,2.88
2023-03-04T17:58:29.662Z,4.78
2023-03-04T18:01:05.069Z,4.30
2023-03-04T18:03:31.954Z,3.33
2023-03-04T18:05:58.787Z,3.55
2023-03-04T18:08:25.656Z,4.75
2023-03-04T18:10:52.459Z,6.28
2023-03-04T18:13:19.358Z,8.13
2023-03-04T18:15:46.339Z,8.73
2023-03-04T18:18:13.204Z,7.53
2023-03-04T18:20:40.134Z,9.88
2023-03-04T18:23:07.034Z,10.95
2023-03-04T18:25:33.865Z,8.90
2023-03-04T18:28:00.641Z,10.50
2023-03-04T18:30:27.609Z,9.45
2023-03-04T18:32:55.824Z,8.05
2023-03-04T18:35:22.790Z,5.57
2023-03-04T18:37:49.726Z,5.75
2023-03-04T18:40:16.780Z,6.03
2023-03-04T18:42:46.674Z,5.80
2023-03-04T18:45:13.727Z,5.93
2023-03-04T18:47:41.753Z,6.13
2023-03-04T18:50:09.426Z,5.60
2023-03-04T18:52:36.286Z,6.22
2023-03-04T18:55:03.293Z,5.38
2023-03-04T18:57:30.100Z,6.15
2023-03-04T19:00:00.977Z,6.05
2023-03-04T19:02:41.474Z,4.70
2023-03-04T19:05:10.623Z,3.38
2023-03-04T19:07:37.397Z,3.70
2023-03-04T19:10:04.512Z,4.00
2023-03-04T19:12:31.287Z,4.22
2023-03-04T19:14:58.874Z,3.45
2023-03-04T19:17:28.611Z,3.15
2023-03-04T19:19:55.446Z,3.53
2023-03-04T19:22:22.215Z,3.60
2023-03-04T19:24:49.042Z,3.75
2023-03-04T19:27:16.883Z,3.30
2023-03-04T19:29:43.666Z,3.58
2023-03-04T19:32:10.513Z,4.97
2023-03-04T19:34:37.347Z,3.97
2023-03-04T19:37:04.143Z,3.83
2023-03-04T19:39:30.949Z,3.95
2023-03-04T19:41:57.735Z,4.22
2023-03-04T19:44:24.633Z,3.83
2023-03-04T19:46:51.425Z,3.83
2023-03-04T19:49:18.295Z,4.22
2023-03-04T19:51:45.190Z,4.07
2023-03-04T19:54:11.984Z,4.43
2023-03-04T19:56:38.841Z,6.80
2023-03-04T19:59:05.623Z,6.00
2023-03-04T20:01:33.798Z,5.97
2023-03-04T20:04:02.572Z,5.65
2023-03-04T20:06:29.890Z,4.68
2023-03-04T20:08:58.429Z,4.65
2023-03-04T20:11:25.741Z,4.15
2023-03-04T20:13:52.700Z,3.92
2023-03-04T20:16:19.908Z,3.58
2023-03-04T20:18:46.894Z,4.22
2023-03-04T20:21:13.695Z,4.10
2023-03-04T20:23:40.542Z,3.80
2023-03-04T20:26:07.397Z,4.30
2023-03-04T20:28:48.745Z,4.25
2023-03-04T20:31:31.563Z,4.65
2023-03-04T20:34:00.914Z,4.68
2023-03-04T20:36:29.632Z,4.43
2023-03-04T20:39:02.356Z,4.30
2023-03-04T20:41:29.509Z,4.67
2023-03-04T20:43:56.413Z,4.40
2023-03-04T20:46:26.592Z,4.90
2023-03-04T20:48:55.027Z,4.43
2023-03-04T20:51:21.944Z,4.35
2023-03-04T20:53:51.464Z,4.10
2023-03-04T20:56:19.316Z,3.97
2023-03-04T20:58:49.070Z,3.25
2023-03-04T21:01:16.920Z,3.53
2023-03-04T21:03:43.808Z,3.60
2023-03-04T21:06:13.066Z,3.40
2023-03-04T21:08:40.978Z,3.53
2023-03-04T21:11:15.731Z,3.65
2023-03-04T21:13:43.204Z,3.80
2023-03-04T21:16:17.964Z,4.25
2023-03-04T21:18:44.918Z,3.67
2023-03-04T21:21:23.059Z,4.03
2023-03-04T21:23:51.436Z,4.15
2023-03-04T21:26:18.633Z,4.13
2023-03-04T21:28:45.752Z,4.22
2023-03-04T21:31:17.833Z,5.90
2023-03-04T21:33:44.783Z,4.38
2023-03-04T21:36:13.846Z,4.35
2023-03-04T21:38:41.479Z,3.92
2023-03-04T21:41:19.179Z,4.22
2023-03-04T21:43:46.013Z,5.38
2023-03-04T21:46:14.534Z,5.88
2023-03-04T21:48:43.238Z,5.70
2023-03-04T21:51:12.305Z,7.95
2023-03-04T21:53:39.296Z,6.53
2023-03-04T21:56:06.176Z,5.90
2023-03-04T21:58:35.214Z,6.38
2023-03-04T22:01:09.911Z,5.78
2023-03-04T22:03:36.734Z,4.85
2023-03-04T22:06:07.387Z,5.20
2023-03-04T22:08:34.319Z,5.50
2023-03-04T22:11:08.856Z,5.20
2023-03-04T22:13:35.860Z,5.00
2023-03-04T22:16:02.907Z,5.03
2023-03-04T22:18:29.787Z,5.60
2023-03-04T22:21:07.489Z,5.80
2023-03-04T22:23:34.395Z,5.70
2023-03-04T22:26:09.239Z,5.82
2023-03-04T22:28:36.676Z,7.15
2023-03-04T22:31:12.693Z,4.97
2023-03-04T22:33:39.535Z,4.88
2023-03-04T22:36:06.501Z,4.90
2023-03-04T22:38:33.336Z,4.07
2023-03-04T22:41:00.125Z,4.28
2023-03-04T22:43:27.022Z,3.75
2023-03-04T22:45:54.329Z,4.43
2023-03-04T22:48:21.143Z,3.75
2023-03-04T22:50:48.012Z,4.15
2023-03-04T22:53:14.831Z,4.75
2023-03-04T22:55:41.619Z,3.90
2023-03-04T22:58:08.531Z,4.13
2023-03-04T23:00:35.368Z,4.22
2023-03-04T23:03:02.182Z,4.47
2023-03-04T23:05:29.117Z,4.63
2023-03-04T23:07:56.000Z,5.28
2023-03-04T23:10:24.145Z,6.10
2023-03-04T23:12:51.501Z,4.55
2023-03-04T23:15:19.332Z,4.38
2023-03-04T23:17:46.335Z,4.88
2023-03-04T23:20:15.318Z,4.57
2023-03-04T23:22:42.140Z,4.78
2023-03-04T23:25:09.341Z,4.35
2023-03-04T23:27:37.229Z,4.32
2023-03-04T23:30:07.986Z,4.55
2023-03-04T23:32:34.940Z,5.72
2023-03-04T23:35:03.094Z,4.53
2023-03-04T23:37:29.876Z,4.75
2023-03-04T23:39:56.749Z,5.15
2023-03-04T23:42:23.532Z,4.93
2023-03-04T23:44:50.371Z,4.95
2023-03-04T23:47:17.235Z,4.93
2023-03-04T23:49:43.984Z,5.15
2023-03-04T23:52:10.828Z,4.70
2023-03-04T23:54:37.655Z,4.30
2023-03-04T23:57:04.652Z,4.90
2023-03-04T23:59:31.487Z,4.75
